sensor_id;sensor_type;location;lat;lon;timestamp;temperature;humidity
21627;DHT22;10975;47.872;12.972;2023-04-01T00:02:04;9.70;99.90
21627;DHT22;10975;47.872;12.972;2023-04-01T00:04:30;9.60;99.90
21627;DHT22;10975;47.872;12.972;2023-04-01T00:06:57;9.60;99.90
21627;DHT22;10975;47.872;12.972;2023-04-01T00:09:24;9.70;99.90
21627;DHT22;10975;47.872;12.972;2023-04-01T00:11:55;9.80;99.90
21627;DHT22;10975;47.872;12.972;2023-04-01T00:14:22;9.60;99.90
21627;DHT22;10975;47.872;12.972;2023-04-01T00:16:48;9.70;99.90
21627;DHT22;10975;47.872;12.972;2023-04-01T00:19:15;9.60;99.90
21627;DHT22;10975;47.872;12.972;2023-04-01T00:21:42;9.90;99.90
21627;DHT22;10975;47.872;12.972;2023-04-01T00:24:09;9.90;99.90
21627;DHT22;10975;47.872;12.972;2023-04-01T00:26:35;10.00;99.90
21627;DHT22;10975;47.872;12.972;2023-04-01T00:29:02;9.90;99.90
21627;DHT22;10975;47.872;12.972;2023-04-01T00:31:29;10.00;99.90
21627;DHT22;10975;47.872;12.972;2023-04-01T00:33:56;10.10;99.90
21627;DHT22;10975;47.872;12.972;2023-04-01T00:36:24;10.00;99.90
21627;DHT22;10975;47.872;12.972;2023-04-01T00:38:50;9.90;99.90
21627;DHT22;10975;47.872;12.972;2023-04-01T00:41:18;9.80;99.90
21627;DHT22;10975;47.872;12.972;2023-04-01T00:43:46;9.70;99.90
21627;DHT22;10975;47.872;12.972;2023-04-01T00:46:13;9.80;99.90
21627;DHT22;10975;47.872;12.972;2023-04-01T00:48:45;9.80;99.90
21627;DHT22;10975;47.872;12.972;2023-04-01T00:51:17;9.60;99.90
21627;DHT22;10975;47.872;12.972;2023-04-01T00:53:45;9.60;99.90
21627;DHT22;10975;47.872;12.972;2023-04-01T00:56:14;9.60;99.90
21627;DHT22;10975;47.872;12.972;2023-04-01T00:58:43;9.60;99.90
21627;DHT22;10975;47.872;12.972;2023-04-01T01:01:10;9.60;99.90
21627;DHT22;10975;47.872;12.972;2023-04-01T01:03:37;9.40;99.90
21627;DHT22;10975;47.872;12.972;2023-04-01T01:06:08;9.30;99.90
21627;DHT22;10975;47.872;12.972;2023-04-01T01:08:45;9.30;99.90
21627;DHT22;10975;47.872;12.972;2023-04-01T01:11:14;9.20;99.90
21627;DHT22;10975;47.872;12.972;2023-04-01T01:18:52;9.30;99.90
21627;DHT22;10975;47.872;12.972;2023-04-01T01:28:57;9.10;99.90
21627;DHT22;10975;47.872;12.972;2023-04-01T01:36:45;8.90;99.90
21627;DHT22;10975;47.872;12.972;2023-04-01T01:39:14;8.80;99.90
21627;DHT22;10975;47.872;12.972;2023-04-01T01:41:42;8.70;99.90
21627;DHT22;10975;47.872;12.972;2023-04-01T01:44:11;8.70;99.90
21627;DHT22;10975;47.872;12.972;2023-04-01T01:46:38;8.70;99.90
21627;DHT22;10975;47.872;12.972;2023-04-01T01:49:05;8.80;99.90
21627;DHT22;10975;47.872;12.972;2023-04-01T01:51:33;8.70;99.90
21627;DHT22;10975;47.872;12.972;2023-04-01T01:54:00;8.80;99.90
21627;DHT22;10975;47.872;12.972;2023-04-01T01:56:27;8.70;99.90
21627;DHT22;10975;47.872;12.972;2023-04-01T01:58:56;8.70;99.90
21627;DHT22;10975;47.872;12.972;2023-04-01T02:01:28;8.60;99.90
21627;DHT22;10975;47.872;12.972;2023-04-01T02:03:57;8.60;99.90
21627;DHT22;10975;47.872;12.972;2023-04-01T02:06:25;8.60;99.90
21627;DHT22;10975;47.872;12.972;2023-04-01T02:09:08;8.60;99.90
21627;DHT22;10975;47.872;12.972;2023-04-01T02:11:41;8.60;99.90
21627;DHT22;10975;47.872;12.972;2023-04-01T02:14:11;8.60;99.90
21627;DHT22;10975;47.872;12.972;2023-04-01T02:16:44;8.70;99.90
21627;DHT22;10975;47.872;12.972;2023-04-01T02:19:12;8.60;99.90
21627;DHT22;10975;47.872;12.972;2023-04-01T02:21:39;8.60;99.90
21627;DHT22;10975;47.872;12.972;2023-04-01T02:24:08;8.60;99.90
21627;DHT22;10975;47.872;12.972;2023-04-01T02:26:37;8.60;99.90
21627;DHT22;10975;47.872;12.972;2023-04-01T02:29:03;8.70;99.90
21627;DHT22;10975;47.872;12.972;2023-04-01T02:31:31;8.70;99.90
21627;DHT22;10975;47.872;12.972;2023-04-01T02:33:58;8.70;99.90
21627;DHT22;10975;47.872;12.972;2023-04-01T02:36:25;8.70;99.90
21627;DHT22;10975;47.872;12.972;2023-04-01T02:38:52;8.70;99.90
21627;DHT22;10975;47.872;12.972;2023-04-01T02:41:21;8.60;99.90
21627;DHT22;10975;47.872;12.972;2023-04-01T02:43:47;8.60;99.90
21627;DHT22;10975;47.872;12.972;2023-04-01T02:46:14;8.50;99.90
21627;DHT22;10975;47.872;12.972;2023-04-01T02:48:41;8.40;99.90
21627;DHT22;10975;47.872;12.972;2023-04-01T02:51:08;8.40;99.90
21627;DHT22;10975;47.872;12.972;2023-04-01T02:53:34;8.40;99.90
21627;DHT22;10975;47.872;12.972;2023-04-01T02:56:01;8.40;99.90
21627;DHT22;10975;47.872;12.972;2023-04-01T02:58:28;8.30;99.90
21627;DHT22;10975;47.872;12.972;2023-04-01T03:00:54;8.30;99.90
21627;DHT22;10975;47.872;12.972;2023-04-01T03:03:21;8.30;99.90
21627;DHT22;10975;47.872;12.972;2023-04-01T03:05:48;8.30;99.90
21627;DHT22;10975;47.872;12.972;2023-04-01T03:08:15;8.30;99.90
21627;DHT22;10975;47.872;12.972;2023-04-01T03:10:41;8.30;99.90
21627;DHT22;10975;47.872;12.972;2023-04-01T03:13:08;8.30;99.90
21627;DHT22;10975;47.872;12.972;2023-04-01T03:15:35;8.30;99.90
21627;DHT22;10975;47.872;12.972;2023-04-01T03:18:02;8.30;99.90
21627;DHT22;10975;47.872;12.972;2023-04-01T03:20:29;8.30;99.90
21627;DHT22;10975;47.872;12.972;2023-04-01T03:22:56;8.30;99.90
21627;DHT22;10975;47.872;12.972;2023-04-01T03:25:24;8.30;99.90
21627;DHT22;10975;47.872;12.972;2023-04-01T03:27:50;8.20;99.90
21627;DHT22;10975;47.872;12.972;2023-04-01T03:30:17;8.20;99.90
21627;DHT22;10975;47.872;12.972;2023-04-01T03:32:44;8.30;99.90
21627;DHT22;10975;47.872;12.972;2023-04-01T03:35:11;8.30;99.90
21627;DHT22;10975;47.872;12.972;2023-04-01T03:37:37;8.30;99.90
21627;DHT22;10975;47.872;12.972;2023-04-01T03:40:04;8.30;99.90
21627;DHT22;10975;47.872;12.972;2023-04-01T03:42:31;8.30;99.90
21627;DHT22;10975;47.872;12.972;2023-04-01T03:44:58;8.20;99.90
21627;DHT22;10975;47.872;12.972;2023-04-01T03:47:25;8.20;99.90
21627;DHT22;10975;47.872;12.972;2023-04-01T03:49:52;8.20;99.90
21627;DHT22;10975;47.872;12.972;2023-04-01T03:52:18;8.20;99.90
21627;DHT22;10975;47.872;12.972;2023-04-01T03:54:45;8.30;99.90
21627;DHT22;10975;47.872;12.972;2023-04-01T03:57:12;8.20;99.90
21627;DHT22;10975;47.872;12.972;2023-04-01T03:59:39;8.20;99.90
21627;DHT22;10975;47.872;12.972;2023-04-01T04:02:06;8.20;99.90
21627;DHT22;10975;47.872;12.972;2023-04-01T04:04:32;8.20;99.90
21627;DHT22;10975;47.872;12.972;2023-04-01T04:07:00;8.20;99.90
21627;DHT22;10975;47.872;12.972;2023-04-01T04:09:26;8.20;99.90
21627;DHT22;10975;47.872;12.972;2023-04-01T04:11:53;8.10;99.90
21627;DHT22;10975;47.872;12.972;2023-04-01T04:14:20;8.10;99.90
21627;DHT22;10975;47.872;12.972;2023-04-01T04:16:46;8.10;99.90
21627;DHT22;10975;47.872;12.972;2023-04-01T04:19:13;8.10;99.90
21627;DHT22;10975;47.872;12.972;2023-04-01T04:21:40;8.30;99.90
21627;DHT22;10975;47.872;12.972;2023-04-01T04:24:07;8.20;99.90
21627;DHT22;10975;47.872;12.972;2023-04-01T04:26:34;8.20;99.90
21627;DHT22;10975;47.872;12.972;2023-04-01T04:29:01;8.20;99.90
21627;DHT22;10975;47.872;12.972;2023-04-01T04:31:28;8.20;99.90
21627;DHT22;10975;47.872;12.972;2023-04-01T04:33:55;8.20;99.90
21627;DHT22;10975;47.872;12.972;2023-04-01T04:36:22;8.20;99.90
21627;DHT22;10975;47.872;12.972;2023-04-01T04:38:48;8.10;99.90
21627;DHT22;10975;47.872;12.972;2023-04-01T04:41:16;8.10;99.90
21627;DHT22;10975;47.872;12.972;2023-04-01T04:43:51;8.10;99.90
21627;DHT22;10975;47.872;12.972;2023-04-01T04:46:19;8.00;99.90
21627;DHT22;10975;47.872;12.972;2023-04-01T04:48:46;8.00;99.90
21627;DHT22;10975;47.872;12.972;2023-04-01T04:51:13;8.00;99.90
21627;DHT22;10975;47.872;12.972;2023-04-01T04:53:41;8.00;99.90
21627;DHT22;10975;47.872;12.972;2023-04-01T04:56:08;7.90;99.90
21627;DHT22;10975;47.872;12.972;2023-04-01T04:58:37;8.00;99.90
21627;DHT22;10975;47.872;12.972;2023-04-01T05:01:11;8.00;99.90
21627;DHT22;10975;47.872;12.972;2023-04-01T05:03:38;8.00;99.90
21627;DHT22;10975;47.872;12.972;2023-04-01T05:06:05;8.00;99.90
21627;DHT22;10975;47.872;12.972;2023-04-01T05:08:33;8.00;99.90
21627;DHT22;10975;47.872;12.972;2023-04-01T05:11:00;8.00;99.90
21627;DHT22;10975;47.872;12.972;2023-04-01T05:13:28;8.00;99.90
21627;DHT22;10975;47.872;12.972;2023-04-01T05:15:54;8.00;99.90
21627;DHT22;10975;47.872;12.972;2023-04-01T05:18:21;8.00;99.90
21627;DHT22;10975;47.872;12.972;2023-04-01T05:20:49;7.90;99.90
21627;DHT22;10975;47.872;12.972;2023-04-01T05:23:16;8.00;99.90
21627;DHT22;10975;47.872;12.972;2023-04-01T05:25:43;7.90;99.90
21627;DHT22;10975;47.872;12.972;2023-04-01T05:28:11;8.00;99.90
21627;DHT22;10975;47.872;12.972;2023-04-01T05:30:41;8.00;99.90
21627;DHT22;10975;47.872;12.972;2023-04-01T05:33:08;8.00;99.90
21627;DHT22;10975;47.872;12.972;2023-04-01T05:35:35;8.00;99.90
21627;DHT22;10975;47.872;12.972;2023-04-01T05:38:02;8.00;99.90
21627;DHT22;10975;47.872;12.972;2023-04-01T05:40:29;8.00;99.90
21627;DHT22;10975;47.872;12.972;2023-04-01T05:42:56;8.00;99.90
21627;DHT22;10975;47.872;12.972;2023-04-01T05:45:23;8.00;99.90
21627;DHT22;10975;47.872;12.972;2023-04-01T05:47:49;8.00;99.90
21627;DHT22;10975;47.872;12.972;2023-04-01T05:50:16;8.00;99.90
21627;DHT22;10975;47.872;12.972;2023-04-01T05:52:43;8.10;99.90
21627;DHT22;10975;47.872;12.972;2023-04-01T05:55:10;8.00;99.90
21627;DHT22;10975;47.872;12.972;2023-04-01T05:57:37;8.10;99.90
21627;DHT22;10975;47.872;12.972;2023-04-01T06:00:04;8.10;99.90
21627;DHT22;10975;47.872;12.972;2023-04-01T06:02:31;8.10;99.90
21627;DHT22;10975;47.872;12.972;2023-04-01T06:07:37;8.20;99.90
21627;DHT22;10975;47.872;12.972;2023-04-01T06:10:08;8.20;99.90
21627;DHT22;10975;47.872;12.972;2023-04-01T06:31:10;8.40;99.90
21627;DHT22;10975;47.872;12.972;2023-04-01T06:39:02;8.50;99.90
21627;DHT22;10975;47.872;12.972;2023-04-01T06:41:44;8.50;99.90
21627;DHT22;10975;47.872;12.972;2023-04-01T06:46:44;8.70;99.90
21627;DHT22;10975;47.872;12.972;2023-04-01T06:54:32;8.80;99.90
21627;DHT22;10975;47.872;12.972;2023-04-01T06:59:45;9.00;99.90
21627;DHT22;10975;47.872;12.972;2023-04-01T07:02:24;9.20;99.90
21627;DHT22;10975;47.872;12.972;2023-04-01T07:04:53;9.20;99.90
21627;DHT22;10975;47.872;12.972;2023-04-01T07:09:49;9.40;99.90
21627;DHT22;10975;47.872;12.972;2023-04-01T07:14:49;9.50;99.90
21627;DHT22;10975;47.872;12.972;2023-04-01T07:17:25;9.60;99.90
21627;DHT22;10975;47.872;12.972;2023-04-01T07:22:40;9.90;99.90
21627;DHT22;10975;47.872;12.972;2023-04-01T07:25:12;10.00;99.90
21627;DHT22;10975;47.872;12.972;2023-04-01T07:27:40;10.10;99.90
21627;DHT22;10975;47.872;12.972;2023-04-01T07:30:18;10.10;99.90
21627;DHT22;10975;47.872;12.972;2023-04-01T07:37:45;10.30;99.90
21627;DHT22;10975;47.872;12.972;2023-04-01T07:40:20;10.30;99.90
21627;DHT22;10975;47.872;12.972;2023-04-01T07:42:57;10.30;99.90
21627;DHT22;10975;47.872;12.972;2023-04-01T07:45:40;10.30;99.90
21627;DHT22;10975;47.872;12.972;2023-04-01T07:51:01;10.40;99.90
21627;DHT22;10975;47.872;12.972;2023-04-01T07:53:39;10.50;99.90
21627;DHT22;10975;47.872;12.972;2023-04-01T07:56:17;10.60;99.90
21627;DHT22;10975;47.872;12.972;2023-04-01T08:06:25;11.00;99.90
21627;DHT22;10975;47.872;12.972;2023-04-01T08:09:10;11.00;99.90
21627;DHT22;10975;47.872;12.972;2023-04-01T08:11:48;11.10;99.90
21627;DHT22;10975;47.872;12.972;2023-04-01T08:16:50;11.30;99.90
21627;DHT22;10975;47.872;12.972;2023-04-01T08:22:14;11.20;99.90
21627;DHT22;10975;47.872;12.972;2023-04-01T08:24:44;11.40;99.90
21627;DHT22;10975;47.872;12.972;2023-04-01T08:27:48;11.60;99.90
21627;DHT22;10975;47.872;12.972;2023-04-01T08:32:54;11.50;99.90
21627;DHT22;10975;47.872;12.972;2023-04-01T08:36:09;11.60;99.90
21627;DHT22;10975;47.872;12.972;2023-04-01T08:38:15;11.70;99.90
21627;DHT22;10975;47.872;12.972;2023-04-01T08:56:33;12.10;99.90
21627;DHT22;10975;47.872;12.972;2023-04-01T08:59:45;12.50;99.90
21627;DHT22;10975;47.872;12.972;2023-04-01T09:04:33;12.60;99.90
21627;DHT22;10975;47.872;12.972;2023-04-01T09:09:49;12.60;99.90
21627;DHT22;10975;47.872;12.972;2023-04-01T09:15:16;12.80;99.90
21627;DHT22;10975;47.872;12.972;2023-04-01T09:22:55;13.20;99.90
21627;DHT22;10975;47.872;12.972;2023-04-01T09:25:31;13.30;99.90
21627;DHT22;10975;47.872;12.972;2023-04-01T09:38:37;13.30;99.90
21627;DHT22;10975;47.872;12.972;2023-04-01T09:44:00;13.10;99.90
21627;DHT22;10975;47.872;12.972;2023-04-01T09:46:42;13.30;99.90
21627;DHT22;10975;47.872;12.972;2023-04-01T09:51:53;13.50;99.90
21627;DHT22;10975;47.872;12.972;2023-04-01T10:02:26;13.00;99.90
21627;DHT22;10975;47.872;12.972;2023-04-01T10:15:26;13.10;99.90
21627;DHT22;10975;47.872;12.972;2023-04-01T10:24:01;12.90;99.90
21627;DHT22;10975;47.872;12.972;2023-04-01T10:28:40;13.20;99.90
21627;DHT22;10975;47.872;12.972;2023-04-01T10:36:34;13.40;99.90
21627;DHT22;10975;47.872;12.972;2023-04-01T10:47:09;14.50;99.90
21627;DHT22;10975;47.872;12.972;2023-04-01T10:49:46;14.60;99.90
21627;DHT22;10975;47.872;12.972;2023-04-01T11:00:31;14.00;99.90
21627;DHT22;10975;47.872;12.972;2023-04-01T11:08:11;14.50;99.90
21627;DHT22;10975;47.872;12.972;2023-04-01T11:16:14;15.00;99.90
21627;DHT22;10975;47.872;12.972;2023-04-01T11:42:10;15.10;99.90
21627;DHT22;10975;47.872;12.972;2023-04-01T11:44:48;14.80;99.90
21627;DHT22;10975;47.872;12.972;2023-04-01T11:49:53;14.90;99.90
21627;DHT22;10975;47.872;12.972;2023-04-01T12:16:15;15.10;99.90
21627;DHT22;10975;47.872;12.972;2023-04-01T12:18:59;15.20;99.90
21627;DHT22;10975;47.872;12.972;2023-04-01T12:21:34;15.10;99.90
21627;DHT22;10975;47.872;12.972;2023-04-01T12:26:51;14.90;99.90
21627;DHT22;10975;47.872;12.972;2023-04-01T12:32:14;15.10;99.90
21627;DHT22;10975;47.872;12.972;2023-04-01T12:42:38;14.90;99.90
21627;DHT22;10975;47.872;12.972;2023-04-01T12:45:30;15.20;99.90
21627;DHT22;10975;47.872;12.972;2023-04-01T12:56:37;15.10;99.90
21627;DHT22;10975;47.872;12.972;2023-04-01T13:10:05;15.60;99.90
21627;DHT22;10975;47.872;12.972;2023-04-01T13:12:47;15.50;99.90
21627;DHT22;10975;47.872;12.972;2023-04-01T13:22:48;15.10;99.90
21627;DHT22;10975;47.872;12.972;2023-04-01T13:28:43;14.60;99.90
21627;DHT22;10975;47.872;12.972;2023-04-01T13:31:25;14.30;99.90
21627;DHT22;10975;47.872;12.972;2023-04-01T13:36:38;14.30;99.90
21627;DHT22;10975;47.872;12.972;2023-04-01T13:44:40;14.30;99.90
21627;DHT22;10975;47.872;12.972;2023-04-01T13:47:11;14.20;99.90
21627;DHT22;10975;47.872;12.972;2023-04-01T14:05:28;13.80;99.90
21627;DHT22;10975;47.872;12.972;2023-04-01T14:16:26;13.10;99.90
21627;DHT22;10975;47.872;12.972;2023-04-01T14:21:32;13.40;99.90
21627;DHT22;10975;47.872;12.972;2023-04-01T14:24:14;13.30;99.90
21627;DHT22;10975;47.872;12.972;2023-04-01T14:27:06;13.30;99.90
21627;DHT22;10975;47.872;12.972;2023-04-01T14:32:12;12.90;99.90
21627;DHT22;10975;47.872;12.972;2023-04-01T14:34:55;12.90;99.90
21627;DHT22;10975;47.872;12.972;2023-04-01T14:42:55;12.40;99.90
21627;DHT22;10975;47.872;12.972;2023-04-01T14:45:29;12.50;99.90
21627;DHT22;10975;47.872;12.972;2023-04-01T14:50:43;12.90;99.90
21627;DHT22;10975;47.872;12.972;2023-04-01T14:53:12;12.80;99.90
21627;DHT22;10975;47.872;12.972;2023-04-01T14:58:16;12.70;99.90
21627;DHT22;10975;47.872;12.972;2023-04-01T15:03:25;12.60;99.90
21627;DHT22;10975;47.872;12.972;2023-04-01T15:08:25;12.60;99.90
21627;DHT22;10975;47.872;12.972;2023-04-01T15:10:56;12.40;99.90
21627;DHT22;10975;47.872;12.972;2023-04-01T15:31:28;12.60;99.90
21627;DHT22;10975;47.872;12.972;2023-04-01T15:34:07;12.50;99.90
21627;DHT22;10975;47.872;12.972;2023-04-01T15:46:52;11.80;99.90
21627;DHT22;10975;47.872;12.972;2023-04-01T15:49:37;11.70;99.90
21627;DHT22;10975;47.872;12.972;2023-04-01T15:52:10;11.60;99.90
21627;DHT22;10975;47.872;12.972;2023-04-01T15:54:47;11.60;99.90
21627;DHT22;10975;47.872;12.972;2023-04-01T16:19:32;10.90;99.90
21627;DHT22;10975;47.872;12.972;2023-04-01T16:27:03;10.70;99.90
21627;DHT22;10975;47.872;12.972;2023-04-01T16:29:53;10.50;99.90
21627;DHT22;10975;47.872;12.972;2023-04-01T16:37:17;10.20;99.90
21627;DHT22;10975;47.872;12.972;2023-04-01T16:39:51;10.20;99.90
21627;DHT22;10975;47.872;12.972;2023-04-01T16:42:30;10.20;99.90
21627;DHT22;10975;47.872;12.972;2023-04-01T16:45:41;10.20;99.90
21627;DHT22;10975;47.872;12.972;2023-04-01T16:47:49;10.30;99.90
21627;DHT22;10975;47.872;12.972;2023-04-01T16:50:19;10.30;99.90
21627;DHT22;10975;47.872;12.972;2023-04-01T16:53:00;10.30;99.90
21627;DHT22;10975;47.872;12.972;2023-04-01T16:55:35;10.30;99.90
21627;DHT22;10975;47.872;12.972;2023-04-01T16:58:07;10.30;99.90
21627;DHT22;10975;47.872;12.972;2023-04-01T17:05:40;10.20;99.90
21627;DHT22;10975;47.872;12.972;2023-04-01T17:18:50;10.20;99.90
21627;DHT22;10975;47.872;12.972;2023-04-01T17:21:22;10.10;99.90
21627;DHT22;10975;47.872;12.972;2023-04-01T17:23:51;10.20;99.90
21627;DHT22;10975;47.872;12.972;2023-04-01T17:28:54;10.20;99.90
21627;DHT22;10975;47.872;12.972;2023-04-01T17:31:28;10.10;99.90
21627;DHT22;10975;47.872;12.972;2023-04-01T17:47:17;10.20;99.90
21627;DHT22;10975;47.872;12.972;2023-04-01T17:52:44;10.20;99.90
21627;DHT22;10975;47.872;12.972;2023-04-01T17:57:55;10.20;99.90
21627;DHT22;10975;47.872;12.972;2023-04-01T18:11:16;10.20;99.90
21627;DHT22;10975;47.872;12.972;2023-04-01T18:16:23;10.40;99.90
21627;DHT22;10975;47.872;12.972;2023-04-01T18:21:27;10.40;99.90
21627;DHT22;10975;47.872;12.972;2023-04-01T18:23:59;10.30;99.90
21627;DHT22;10975;47.872;12.972;2023-04-01T18:26:29;10.20;99.90
21627;DHT22;10975;47.872;12.972;2023-04-01T18:28:59;10.20;99.90
21627;DHT22;10975;47.872;12.972;2023-04-01T18:31:42;10.20;99.90
21627;DHT22;10975;47.872;12.972;2023-04-01T18:36:51;10.30;99.90
21627;DHT22;10975;47.872;12.972;2023-04-01T18:39:33;10.40;99.90
21627;DHT22;10975;47.872;12.972;2023-04-01T18:42:17;10.30;99.90
21627;DHT22;10975;47.872;12.972;2023-04-01T18:50:14;10.40;99.90
21627;DHT22;10975;47.872;12.972;2023-04-01T18:52:45;10.30;99.90
21627;DHT22;10975;47.872;12.972;2023-04-01T19:00:32;10.10;99.90
21627;DHT22;10975;47.872;12.972;2023-04-01T19:03:10;10.10;99.90
21627;DHT22;10975;47.872;12.972;2023-04-01T19:05:40;10.20;99.90
21627;DHT22;10975;47.872;12.972;2023-04-01T19:08:14;10.50;99.90
21627;DHT22;10975;47.872;12.972;2023-04-01T19:13:34;10.60;99.90
21627;DHT22;10975;47.872;12.972;2023-04-01T19:16:16;10.50;99.90
21627;DHT22;10975;47.872;12.972;2023-04-01T19:21:44;10.40;99.90
21627;DHT22;10975;47.872;12.972;2023-04-01T19:24:33;10.40;99.90
21627;DHT22;10975;47.872;12.972;2023-04-01T19:37:39;10.30;99.90
21627;DHT22;10975;47.872;12.972;2023-04-01T19:40:28;10.30;99.90
21627;DHT22;10975;47.872;12.972;2023-04-01T19:42:59;10.20;99.90
21627;DHT22;10975;47.872;12.972;2023-04-01T19:47:57;10.30;99.90
21627;DHT22;10975;47.872;12.972;2023-04-01T19:53:14;10.30;99.90
21627;DHT22;10975;47.872;12.972;2023-04-01T19:55:48;10.20;99.90
21627;DHT22;10975;47.872;12.972;2023-04-01T19:58:22;10.30;99.90
21627;DHT22;10975;47.872;12.972;2023-04-01T20:00:52;10.30;99.90
21627;DHT22;10975;47.872;12.972;2023-04-01T20:06:07;10.30;99.90
21627;DHT22;10975;47.872;12.972;2023-04-01T20:11:28;10.30;99.90
21627;DHT22;10975;47.872;12.972;2023-04-01T20:19:25;10.30;99.90
21627;DHT22;10975;47.872;12.972;2023-04-01T20:21:53;10.40;99.90
21627;DHT22;10975;47.872;12.972;2023-04-01T20:27:03;10.20;99.90
21627;DHT22;10975;47.872;12.972;2023-04-01T20:35:14;10.30;99.90
21627;DHT22;10975;47.872;12.972;2023-04-01T20:50:28;10.30;99.90
21627;DHT22;10975;47.872;12.972;2023-04-01T20:53:01;10.30;99.90
21627;DHT22;10975;47.872;12.972;2023-04-01T20:58:07;10.20;99.90
21627;DHT22;10975;47.872;12.972;2023-04-01T21:06:22;10.10;99.90
21627;DHT22;10975;47.872;12.972;2023-04-01T21:09:00;10.10;99.90
21627;DHT22;10975;47.872;12.972;2023-04-01T21:17:07;9.90;99.90
21627;DHT22;10975;47.872;12.972;2023-04-01T21:19:45;9.90;99.90
21627;DHT22;10975;47.872;12.972;2023-04-01T21:24:54;9.80;99.90
21627;DHT22;10975;47.872;12.972;2023-04-01T21:35:30;9.80;99.90
21627;DHT22;10975;47.872;12.972;2023-04-01T21:51:36;9.50;99.90
21627;DHT22;10975;47.872;12.972;2023-04-01T21:59:41;9.40;99.90
21627;DHT22;10975;47.872;12.972;2023-04-01T22:07:22;9.40;99.90
21627;DHT22;10975;47.872;12.972;2023-04-01T22:20:48;9.30;99.90
21627;DHT22;10975;47.872;12.972;2023-04-01T22:28:56;9.20;99.90
21627;DHT22;10975;47.872;12.972;2023-04-01T22:31:28;9.20;99.90
21627;DHT22;10975;47.872;12.972;2023-04-01T22:34:00;9.20;99.90
21627;DHT22;10975;47.872;12.972;2023-04-01T22:36:54;9.10;99.90
21627;DHT22;10975;47.872;12.972;2023-04-01T22:45:00;9.00;99.90
21627;DHT22;10975;47.872;12.972;2023-04-01T22:50:05;8.90;99.90
21627;DHT22;10975;47.872;12.972;2023-04-01T22:52:38;9.00;99.90
21627;DHT22;10975;47.872;12.972;2023-04-01T22:55:23;9.00;99.90
21627;DHT22;10975;47.872;12.972;2023-04-01T22:57:55;9.00;99.90
21627;DHT22;10975;47.872;12.972;2023-04-01T23:00:32;9.00;99.90
21627;DHT22;10975;47.872;12.972;2023-04-01T23:03:06;9.00;99.90
21627;DHT22;10975;47.872;12.972;2023-04-01T23:05:36;8.90;99.90
21627;DHT22;10975;47.872;12.972;2023-04-01T23:11:04;8.90;99.90
21627;DHT22;10975;47.872;12.972;2023-04-01T23:13:57;8.90;99.90
21627;DHT22;10975;47.872;12.972;2023-04-01T23:16:21;9.00;99.90
21627;DHT22;10975;47.872;12.972;2023-04-01T23:19:11;8.90;99.90
21627;DHT22;10975;47.872;12.972;2023-04-01T23:22:00;8.90;99.90
21627;DHT22;10975;47.872;12.972;2023-04-01T23:24:31;8.90;99.90
21627;DHT22;10975;47.872;12.972;2023-04-01T23:27:05;8.90;99.90
21627;DHT22;10975;47.872;12.972;2023-04-01T23:29:35;8.90;99.90
21627;DHT22;10975;47.872;12.972;2023-04-01T23:32:03;8.90;99.90
21627;DHT22;10975;47.872;12.972;2023-04-01T23:34:33;9.00;99.90
21627;DHT22;10975;47.872;12.972;2023-04-01T23:37:02;9.00;99.90
21627;DHT22;10975;47.872;12.972;2023-04-01T23:39:39;9.00;99.90
21627;DHT22;10975;47.872;12.972;2023-04-01T23:42:27;8.90;99.90
21627;DHT22;10975;47.872;12.972;2023-04-01T23:44:58;8.90;99.90
21627;DHT22;10975;47.872;12.972;2023-04-01T23:47:29;8.90;99.90
21627;DHT22;10975;47.872;12.972;2023-04-01T23:49:58;8.90;99.90
21627;DHT22;10975;47.872;12.972;2023-04-01T23:52:36;8.90;99.90
21627;DHT22;10975;47.872;12.972;2023-04-01T23:55:13;9.00;99.90
21627;DHT22;10975;47.872;12.972;2023-04-01T23:57:40;9.00;99.90
